Time;durP1;ratioP1;P1;durP2;ratioP2;P2;SDS_P1;SDS_P2;PMS_P1;PMS_P2;Temp;Humidity;BMP_temperature;BMP_pressure;BME280_temperature;BME280_humidity;BME280_pressure;Samples;Min_cycle;Max_cycle;Signal;HPM_P1;HPM_P2
2024/02/25 00:01:28;;;;;;;16.25;8.93;;;5.20;99.90;;;;;;7601784;19;20045;-73
2024/02/25 00:04:00;;;;;;;16.37;8.60;;;5.20;99.90;;;;;;7603251;19;21245;-74
2024/02/25 00:06:33;;;;;;;13.90;7.85;;;5.10;99.90;;;;;;7608947;19;20370;-72
2024/02/25 00:09:07;;;;;;;13.55;7.20;;;5.10;99.90;;;;;;7609155;19;20781;-74
2024/02/25 00:11:42;;;;;;;12.68;7.10;;;5.00;99.90;;;;;;7604604;19;20032;-73
2024/02/25 00:14:14;;;;;;;9.95;6.50;;;5.00;99.90;;;;;;7610775;19;20019;-74
2024/02/25 00:16:46;;;;;;;11.05;6.30;;;4.90;99.90;;;;;;7610071;19;20015;-75
2024/02/25 00:19:19;;;;;;;10.05;5.97;;;4.80;99.90;;;;;;7604932;19;20979;-74
2024/02/25 00:21:51;;;;;;;8.20;5.50;;;4.80;99.90;;;;;;7609844;19;20037;-75
2024/02/25 00:24:23;;;;;;;11.10;6.05;;;4.90;99.90;;;;;;7592852;19;20947;-74
2024/02/25 00:26:56;;;;;;;7.40;5.07;;;4.90;99.90;;;;;;7610378;19;20007;-74
2024/02/25 00:29:28;;;;;;;9.27;5.50;;;4.80;99.90;;;;;;7609752;19;21792;-75
2024/02/25 00:32:01;;;;;;;9.48;5.65;;;4.80;99.90;;;;;;7607525;19;20706;-73
2024/02/25 00:34:33;;;;;;;8.20;5.25;;;4.80;99.90;;;;;;7607583;19;20022;-74
2024/02/25 00:37:05;;;;;;;8.98;5.70;;;4.80;99.90;;;;;;7608554;19;20650;-73
2024/02/25 00:39:38;;;;;;;9.27;5.47;;;4.90;99.90;;;;;;7602914;19;20027;-75
2024/02/25 00:42:10;;;;;;;7.47;5.32;;;4.80;99.90;;;;;;7605272;19;20018;-75
2024/02/25 00:44:46;;;;;;;8.05;5.50;;;4.80;99.90;;;;;;7608433;19;20082;-74
2024/02/25 00:47:18;;;;;;;9.32;4.97;;;4.80;99.90;;;;;;7606847;19;20017;-74
2024/02/25 00:49:50;;;;;;;10.07;5.35;;;4.80;99.90;;;;;;7600676;19;20034;-75
2024/02/25 00:52:24;;;;;;;9.95;5.85;;;4.80;99.90;;;;;;7603512;19;21244;-75
2024/02/25 00:54:56;;;;;;;5.80;5.07;;;4.80;99.90;;;;;;7607969;19;20018;-75
2024/02/25 00:57:29;;;;;;;7.28;5.35;;;4.80;99.90;;;;;;7610330;19;20026;-75
2024/02/25 01:00:01;;;;;;;8.77;5.93;;;4.80;99.90;;;;;;7610829;19;20022;-74
2024/02/25 01:02:34;;;;;;;8.20;5.35;;;4.80;99.90;;;;;;7610670;19;20837;-72
2024/02/25 01:05:07;;;;;;;9.13;5.77;;;4.80;99.90;;;;;;7614593;19;20015;-72
2024/02/25 01:07:39;;;;;;;8.40;5.10;;;4.70;99.90;;;;;;7596177;19;20022;-73
2024/02/25 01:10:12;;;;;;;9.63;5.38;;;4.70;99.90;;;;;;7612551;19;20564;-74
2024/02/25 01:12:45;;;;;;;6.95;4.53;;;4.60;99.90;;;;;;7606294;19;20017;-74
2024/02/25 01:15:17;;;;;;;9.23;5.60;;;4.60;99.90;;;;;;7606254;19;20022;-74
2024/02/25 01:17:49;;;;;;;9.60;4.93;;;4.60;99.90;;;;;;7610257;19;20529;-73
2024/02/25 01:20:22;;;;;;;10.05;5.70;;;4.70;99.90;;;;;;7608868;19;20073;-73
2024/02/25 01:22:54;;;;;;;5.27;4.37;;;4.70;99.90;;;;;;7607956;19;20022;-73
2024/02/25 01:25:27;;;;;;;6.82;4.55;;;4.60;99.90;;;;;;7606383;19;20275;-73
2024/02/25 01:27:59;;;;;;;7.07;4.40;;;4.70;99.90;;;;;;7607586;19;20022;-73
2024/02/25 01:30:31;;;;;;;6.97;4.57;;;4.70;99.90;;;;;;7609546;19;20026;-73
2024/02/25 01:33:03;;;;;;;10.18;4.45;;;4.60;99.90;;;;;;7608101;19;20052;-73
2024/02/25 01:35:36;;;;;;;7.25;4.93;;;4.60;99.90;;;;;;7606470;19;20030;-73
2024/02/25 01:38:09;;;;;;;7.45;5.05;;;4.60;99.90;;;;;;7591787;19;20014;-74
2024/02/25 01:40:42;;;;;;;7.03;4.83;;;4.50;99.90;;;;;;7600557;19;20038;-74
2024/02/25 01:43:15;;;;;;;;;;;4.50;99.90;;;;;;7610080;19;20443;-75
2024/02/25 01:45:48;;;;;;;6.63;4.40;;;4.50;99.90;;;;;;7606219;19;19982;-74
2024/02/25 01:48:21;;;;;;;8.73;4.00;;;4.50;99.90;;;;;;7609174;19;20014;-73
2024/02/25 01:50:54;;;;;;;7.03;4.30;;;4.40;99.90;;;;;;7608105;19;20511;-73
2024/02/25 01:53:27;;;;;;;6.97;4.78;;;4.40;99.90;;;;;;7606062;19;20014;-75
2024/02/25 01:56:00;;;;;;;5.50;3.85;;;4.50;99.90;;;;;;7605217;19;20484;-73
2024/02/25 01:58:33;;;;;;;7.18;4.20;;;4.50;99.90;;;;;;7602363;19;20019;-73
2024/02/25 02:01:06;;;;;;;8.35;4.47;;;4.50;99.90;;;;;;7606539;19;20097;-73
2024/02/25 02:03:40;;;;;;;6.47;4.15;;;4.60;99.90;;;;;;7605893;19;20101;-75
2024/02/25 02:06:12;;;;;;;7.55;4.13;;;4.60;99.90;;;;;;7603985;19;20022;-74
2024/02/25 02:08:44;;;;;;;4.95;3.72;;;4.60;99.90;;;;;;7600334;19;20019;-73
2024/02/25 02:11:18;;;;;;;12.02;4.57;;;4.60;99.90;;;;;;7602626;19;20046;-75
2024/02/25 02:13:52;;;;;;;;;;;4.50;99.90;;;;;;7606444;19;20018;-73
2024/02/25 02:16:25;;;;;;;8.52;4.05;;;4.60;99.90;;;;;;7605852;19;19950;-75
2024/02/25 02:18:57;;;;;;;6.35;3.90;;;4.60;99.90;;;;;;7603772;19;20463;-73
2024/02/25 02:21:30;;;;;;;5.30;3.50;;;4.50;99.90;;;;;;7606778;19;20037;-73
2024/02/25 02:24:02;;;;;;;5.40;3.72;;;4.50;99.90;;;;;;7602614;19;20671;-75
2024/02/25 02:26:35;;;;;;;6.00;4.35;;;4.40;99.90;;;;;;7606918;19;20633;-75
2024/02/25 02:29:07;;;;;;;8.20;4.03;;;4.50;99.90;;;;;;7605882;19;20671;-74
2024/02/25 02:31:40;;;;;;;5.40;3.70;;;4.50;99.90;;;;;;7605704;19;20014;-75
2024/02/25 02:34:12;;;;;;;8.32;4.72;;;4.50;99.90;;;;;;7603660;19;20018;-73
2024/02/25 02:36:44;;;;;;;8.68;5.53;;;4.50;99.90;;;;;;7600674;19;21252;-77
2024/02/25 02:39:17;;;;;;;7.68;4.45;;;4.50;99.90;;;;;;7602131;19;20516;-75
2024/02/25 02:41:49;;;;;;;10.48;4.80;;;4.60;99.90;;;;;;7595611;19;20475;-75
2024/02/25 02:44:21;;;;;;;9.73;4.55;;;4.60;99.90;;;;;;7604751;19;20025;-76
2024/02/25 02:46:53;;;;;;;6.72;3.60;;;4.60;99.90;;;;;;7605402;19;20015;-75
2024/02/25 02:49:26;;;;;;;7.13;3.70;;;4.60;99.90;;;;;;7603240;19;20015;-75
2024/02/25 02:51:59;;;;;;;6.72;3.53;;;4.60;99.90;;;;;;7603200;19;20081;-74
2024/02/25 02:54:32;;;;;;;5.15;3.30;;;4.60;99.90;;;;;;7601269;19;20043;-72
2024/02/25 02:57:04;;;;;;;4.70;3.08;;;4.60;99.90;;;;;;7605287;19;20086;-73
2024/02/25 02:59:36;;;;;;;7.47;3.72;;;4.60;99.90;;;;;;7602519;19;20015;-73
2024/02/25 03:02:09;;;;;;;6.93;3.25;;;4.60;99.90;;;;;;7603517;19;22421;-74
2024/02/25 03:04:41;;;;;;;6.78;3.05;;;4.60;99.90;;;;;;7602983;19;20054;-73
2024/02/25 03:07:13;;;;;;;7.55;3.70;;;4.60;99.90;;;;;;7605806;19;20035;-73
2024/02/25 03:09:46;;;;;;;5.63;3.25;;;4.60;99.90;;;;;;7586271;19;20543;-75
2024/02/25 03:12:18;;;;;;;8.80;3.60;;;4.60;99.90;;;;;;7600434;19;20017;-76
2024/02/25 03:14:51;;;;;;;8.35;3.60;;;4.60;99.90;;;;;;7598853;19;20010;-76
2024/02/25 03:17:23;;;;;;;5.80;3.63;;;4.50;99.90;;;;;;7603460;19;20025;-75
2024/02/25 03:19:56;;;;;;;8.65;3.53;;;4.40;99.90;;;;;;7603352;19;21293;-75
2024/02/25 03:22:28;;;;;;;4.68;3.22;;;4.40;99.90;;;;;;7600388;19;20018;-74
2024/02/25 03:25:02;;;;;;;6.35;3.50;;;4.40;99.90;;;;;;7600685;19;20014;-74
2024/02/25 03:27:37;;;;;;;5.82;3.70;;;4.40;99.90;;;;;;7602391;19;20820;-75
2024/02/25 03:30:10;;;;;;;6.50;4.35;;;4.40;99.90;;;;;;7602949;19;20014;-73
2024/02/25 03:32:42;;;;;;;4.70;3.20;;;4.40;99.90;;;;;;7600708;19;20075;-72
2024/02/25 03:35:15;;;;;;;7.78;3.97;;;4.30;99.90;;;;;;7602790;19;20044;-74
2024/02/25 03:37:50;;;;;;;7.00;3.80;;;4.30;99.90;;;;;;7601161;19;20022;-75
2024/02/25 03:40:23;;;;;;;6.28;3.80;;;4.30;99.90;;;;;;7596742;19;20035;-74
2024/02/25 03:42:55;;;;;;;6.38;3.67;;;4.40;99.90;;;;;;7586551;19;20007;-74
2024/02/25 03:45:28;;;;;;;6.20;3.65;;;4.40;99.90;;;;;;7600822;19;20097;-76
2024/02/25 03:48:00;;;;;;;5.32;3.53;;;4.40;99.90;;;;;;7600503;19;20051;-73
2024/02/25 03:50:33;;;;;;;5.97;3.17;;;4.40;99.90;;;;;;7601945;19;20026;-73
2024/02/25 03:53:06;;;;;;;8.30;3.72;;;4.40;99.90;;;;;;7602002;19;20733;-73
2024/02/25 03:55:38;;;;;;;6.37;3.60;;;4.40;99.90;;;;;;7600009;19;20113;-73
2024/02/25 03:58:10;;;;;;;6.97;3.50;;;4.50;99.90;;;;;;7602335;19;20033;-73
2024/02/25 04:00:42;;;;;;;5.55;3.17;;;4.50;99.90;;;;;;7600523;19;20022;-73
2024/02/25 04:03:15;;;;;;;5.68;3.13;;;4.50;99.90;;;;;;7600842;19;20039;-75
2024/02/25 04:05:48;;;;;;;3.77;2.90;;;4.60;99.90;;;;;;7603727;19;20026;-73
2024/02/25 04:08:20;;;;;;;5.27;3.13;;;4.60;99.90;;;;;;7599794;19;20018;-73
2024/02/25 04:10:53;;;;;;;5.18;3.08;;;4.60;99.90;;;;;;7593763;19;20295;-75
2024/02/25 04:13:26;;;;;;;3.70;2.70;;;4.50;99.90;;;;;;7596989;19;20081;-74
2024/02/25 04:15:58;;;;;;;7.32;2.95;;;4.50;99.90;;;;;;7602237;19;20081;-73
2024/02/25 04:18:30;;;;;;;5.07;2.90;;;4.50;99.90;;;;;;7602451;19;20480;-75
2024/02/25 04:21:03;;;;;;;5.40;3.22;;;4.50;99.90;;;;;;7578898;19;20015;-75
2024/02/25 04:23:36;;;;;;;5.22;3.35;;;4.60;99.90;;;;;;7600105;19;20045;-75
2024/02/25 04:26:08;;;;;;;3.50;2.90;;;4.60;99.90;;;;;;7599524;19;20029;-74
2024/02/25 04:28:41;;;;;;;3.15;2.60;;;4.60;99.90;;;;;;7603639;19;20022;-76
2024/02/25 04:31:13;;;;;;;4.22;2.92;;;4.60;99.90;;;;;;7599548;19;20018;-73
2024/02/25 04:33:46;;;;;;;5.65;2.40;;;4.60;99.90;;;;;;7594619;19;20019;-73
2024/02/25 04:36:18;;;;;;;3.88;2.65;;;4.50;99.90;;;;;;7600554;19;20026;-75
2024/02/25 04:38:51;;;;;;;4.60;2.72;;;4.40;99.90;;;;;;7593293;19;20034;-73
2024/02/25 04:41:23;;;;;;;4.13;2.63;;;4.40;99.90;;;;;;7588898;19;20086;-74
2024/02/25 04:43:55;;;;;;;3.92;2.50;;;4.30;99.90;;;;;;7602957;19;20048;-72
2024/02/25 04:46:28;;;;;;;3.97;2.57;;;4.30;99.90;;;;;;7604198;19;20022;-73
2024/02/25 04:49:01;;;;;;;5.72;2.60;;;4.20;99.90;;;;;;7607891;19;20026;-73
2024/02/25 04:51:35;;;;;;;4.07;3.10;;;4.10;99.90;;;;;;7607517;19;20006;-74
2024/02/25 04:54:07;;;;;;;4.75;3.15;;;4.20;99.90;;;;;;7601878;19;20988;-73
2024/02/25 04:56:40;;;;;;;4.57;3.22;;;4.20;99.90;;;;;;7596908;19;20022;-73
2024/02/25 04:59:12;;;;;;;6.20;2.80;;;4.10;99.90;;;;;;7599489;19;20049;-72
2024/02/25 05:01:49;;;;;;;6.05;2.97;;;4.00;99.90;;;;;;7602544;19;20962;-72
2024/02/25 05:04:21;;;;;;;5.32;3.08;;;3.90;99.90;;;;;;7591563;19;20037;-73
2024/02/25 05:06:54;;;;;;;4.68;3.55;;;3.90;99.90;;;;;;7599578;19;20018;-72
2024/02/25 05:09:27;;;;;;;5.07;3.22;;;3.90;99.90;;;;;;7586178;19;20094;-72
2024/02/25 05:12:00;;;;;;;4.78;2.72;;;4.00;99.90;;;;;;7596166;19;20022;-72
2024/02/25 05:14:32;;;;;;;4.10;2.80;;;4.00;99.90;;;;;;7598389;19;20019;-76
2024/02/25 05:17:04;;;;;;;4.95;3.22;;;4.10;99.90;;;;;;7595849;19;20014;-75
2024/02/25 05:19:37;;;;;;;3.90;3.05;;;4.10;99.90;;;;;;7587614;19;20018;-74
2024/02/25 05:22:09;;;;;;;4.13;2.80;;;4.00;99.90;;;;;;7596452;19;20018;-75
2024/02/25 05:24:42;;;;;;;6.60;3.60;;;4.00;99.90;;;;;;7590735;19;20102;-74
2024/02/25 05:27:14;;;;;;;5.85;3.95;;;3.90;99.90;;;;;;7589888;19;20295;-74
2024/02/25 05:29:47;;;;;;;4.65;2.95;;;3.90;99.90;;;;;;7598146;19;20019;-75
2024/02/25 05:32:20;;;;;;;;;;;3.90;99.90;;;;;;7603392;19;20048;-72
2024/02/25 05:34:52;;;;;;;3.67;2.85;;;3.90;99.90;;;;;;7601414;19;20792;-74
2024/02/25 05:37:25;;;;;;;5.85;3.33;;;3.80;99.90;;;;;;7597039;19;20035;-74
2024/02/25 05:39:57;;;;;;;4.93;3.00;;;3.80;99.90;;;;;;7579061;19;21022;-75
2024/02/25 05:42:30;;;;;;;4.93;3.40;;;3.70;99.90;;;;;;7601388;19;20018;-74
2024/02/25 05:45:03;;;;;;;6.18;2.97;;;3.70;99.90;;;;;;7601921;19;20019;-75
2024/02/25 05:47:36;;;;;;;6.53;3.00;;;3.70;99.90;;;;;;7597867;19;20026;-75
2024/02/25 05:50:09;;;;;;;3.67;2.80;;;3.70;99.90;;;;;;7598124;19;20056;-74
2024/02/25 05:52:42;;;;;;;6.47;3.60;;;3.70;99.90;;;;;;7598905;19;20030;-74
2024/02/25 05:55:17;;;;;;;4.07;2.72;;;3.60;99.90;;;;;;7588224;19;20023;-72
2024/02/25 05:57:49;;;;;;;5.50;3.40;;;3.60;99.90;;;;;;7593600;19;20031;-74
2024/02/25 06:00:22;;;;;;;6.85;3.33;;;3.50;99.90;;;;;;7585221;19;20143;-72
2024/02/25 06:02:54;;;;;;;4.70;3.20;;;3.60;99.90;;;;;;7599669;19;20048;-73
2024/02/25 06:05:30;;;;;;;4.13;2.85;;;3.60;99.90;;;;;;7596978;19;20014;-73
2024/02/25 06:08:03;;;;;;;4.15;2.63;;;3.60;99.90;;;;;;7583486;19;20060;-73
2024/02/25 06:10:36;;;;;;;4.35;3.10;;;3.70;99.90;;;;;;7605105;19;20014;-74
2024/02/25 06:13:08;;;;;;;4.45;3.15;;;3.70;99.90;;;;;;7600745;19;20539;-73
2024/02/25 06:15:41;;;;;;;4.28;3.15;;;3.60;99.90;;;;;;7581960;19;20784;-74
2024/02/25 06:18:14;;;;;;;6.70;3.10;;;3.70;99.90;;;;;;7589852;19;20561;-75
2024/02/25 06:20:48;;;;;;;4.68;2.80;;;3.60;99.90;;;;;;7599211;19;20040;-75
2024/02/25 06:23:20;;;;;;;5.15;3.30;;;3.60;99.90;;;;;;7596263;19;20480;-73
2024/02/25 06:25:56;;;;;;;5.13;3.25;;;3.60;99.90;;;;;;7580310;19;20021;-73
2024/02/25 06:28:28;;;;;;;6.10;3.22;;;3.70;99.90;;;;;;7596751;19;20013;-72
2024/02/25 06:31:02;;;;;;;4.03;2.92;;;3.70;99.90;;;;;;7587680;19;20021;-73
2024/02/25 06:33:34;;;;;;;4.90;3.22;;;3.70;99.90;;;;;;7596844;19;20022;-72
2024/02/25 06:36:18;;;;;;;4.63;3.22;;;3.70;99.90;;;;;;7588158;19;20022;-73
2024/02/25 06:38:51;;;;;;;;;;;3.70;99.90;;;;;;7580727;19;20764;-73
2024/02/25 06:41:24;;;;;;;5.25;3.03;;;3.70;99.90;;;;;;7585603;19;19930;-74
2024/02/25 06:43:57;;;;;;;4.88;3.10;;;3.60;99.90;;;;;;7596726;19;20052;-76
2024/02/25 06:46:29;;;;;;;6.03;3.00;;;3.60;99.90;;;;;;7586175;19;20067;-73
2024/02/25 06:49:03;;;;;;;4.53;3.38;;;3.60;99.90;;;;;;7576379;19;20214;-72
2024/02/25 06:51:35;;;;;;;3.58;2.72;;;3.60;99.90;;;;;;7590823;19;20022;-72
2024/02/25 06:54:08;;;;;;;3.90;2.90;;;3.70;99.90;;;;;;7589948;19;20607;-73
2024/02/25 06:56:42;;;;;;;7.55;2.65;;;3.70;99.90;;;;;;7593231;19;20538;-74
2024/02/25 06:59:14;;;;;;;5.90;3.08;;;3.70;99.90;;;;;;7593591;19;20018;-72
2024/02/25 07:01:47;;;;;;;3.67;2.58;;;3.70;99.90;;;;;;7555599;19;20014;-75
2024/02/25 07:04:24;;;;;;;4.03;2.88;;;3.70;99.90;;;;;;7559506;19;20045;-75
2024/02/25 07:06:57;;;;;;;6.10;3.00;;;3.70;99.90;;;;;;7580694;19;20078;-73
2024/02/25 07:09:29;;;;;;;6.45;3.03;;;3.70;99.90;;;;;;7577576;19;20024;-72
2024/02/25 07:12:02;;;;;;;3.28;2.85;;;3.80;99.90;;;;;;7588650;19;20018;-72
2024/02/25 07:14:34;;;;;;;4.10;3.10;;;3.80;99.90;;;;;;7575800;19;20014;-72
2024/02/25 07:17:07;;;;;;;4.00;3.38;;;3.90;99.90;;;;;;7593748;19;21152;-73
2024/02/25 07:19:46;;;;;;;4.03;2.72;;;3.90;99.90;;;;;;7582862;19;20048;-74
2024/02/25 07:22:18;;;;;;;4.70;2.92;;;3.90;99.90;;;;;;7591762;19;20022;-73
2024/02/25 07:24:51;;;;;;;5.15;3.17;;;4.00;99.90;;;;;;7576676;19;20058;-72
2024/02/25 07:27:24;;;;;;;4.05;3.10;;;4.10;99.90;;;;;;7593666;19;20019;-74
2024/02/25 07:29:56;;;;;;;4.90;3.13;;;4.10;99.90;;;;;;7593831;19;20023;-74
2024/02/25 07:32:30;;;;;;;6.43;3.35;;;4.20;99.90;;;;;;7593387;19;20052;-75
2024/02/25 07:35:04;;;;;;;7.90;3.70;;;4.20;99.90;;;;;;7596374;19;20018;-74
2024/02/25 07:37:36;;;;;;;4.53;3.20;;;4.30;99.90;;;;;;7598221;19;20021;-73
2024/02/25 07:40:09;;;;;;;4.55;3.13;;;4.30;99.90;;;;;;7592842;19;20094;-74
2024/02/25 07:42:42;;;;;;;4.97;3.30;;;4.30;99.90;;;;;;7587379;19;20018;-72
2024/02/25 07:45:15;;;;;;;5.60;3.33;;;4.40;99.90;;;;;;7583357;19;20018;-74
2024/02/25 07:47:48;;;;;;;7.68;4.80;;;4.40;99.90;;;;;;7587570;19;20014;-73
2024/02/25 07:50:20;;;;;;;10.33;4.90;;;4.40;99.90;;;;;;7585070;19;20018;-73
2024/02/25 07:52:54;;;;;;;6.25;4.75;;;4.40;99.90;;;;;;7579823;19;20010;-75
2024/02/25 07:55:26;;;;;;;;;;;4.40;99.90;;;;;;7527559;19;20018;-73
2024/02/25 07:57:58;;;;;;;4.85;3.70;;;4.50;99.90;;;;;;7575135;19;19926;-75
2024/02/25 08:00:31;;;;;;;6.10;3.77;;;4.50;99.90;;;;;;7599189;19;20026;-74
2024/02/25 08:03:04;;;;;;;6.35;3.25;;;4.50;99.90;;;;;;7585319;19;20007;-72
2024/02/25 08:05:37;;;;;;;9.60;3.17;;;4.60;99.90;;;;;;7571668;19;20078;-73
2024/02/25 08:08:10;;;;;;;7.63;3.55;;;4.70;99.90;;;;;;7578779;19;20134;-73
2024/02/25 08:10:46;;;;;;;6.53;3.35;;;4.70;99.90;;;;;;7576577;19;20018;-74
2024/02/25 08:13:19;;;;;;;7.07;3.17;;;4.70;99.90;;;;;;7579843;19;20033;-73
2024/02/25 08:15:52;;;;;;;4.73;3.27;;;4.80;99.90;;;;;;7568816;19;20053;-72
2024/02/25 08:18:24;;;;;;;4.93;3.30;;;4.90;99.90;;;;;;7585491;19;21801;-73
2024/02/25 08:20:57;;;;;;;4.28;3.05;;;4.90;99.90;;;;;;7588893;19;20018;-73
2024/02/25 08:23:29;;;;;;;4.47;3.15;;;4.90;99.90;;;;;;7600486;19;20007;-74
2024/02/25 08:26:03;;;;;;;4.90;2.75;;;5.00;99.90;;;;;;7514508;19;20026;-75
2024/02/25 08:28:38;;;;;;;3.67;2.55;;;5.10;99.90;;;;;;7511968;19;20024;-73
2024/02/25 08:31:11;;;;;;;3.03;2.47;;;5.10;99.90;;;;;;7559324;19;20651;-73
2024/02/25 08:33:44;;;;;;;3.80;2.55;;;5.20;99.90;;;;;;7586154;19;20058;-73
2024/02/25 08:36:17;;;;;;;4.77;2.70;;;5.30;99.90;;;;;;7592060;19;20479;-73
2024/02/25 08:38:50;;;;;;;3.60;2.65;;;5.40;99.90;;;;;;7620261;19;20025;-74
2024/02/25 08:41:26;;;;;;;3.58;2.45;;;5.40;99.90;;;;;;7605323;19;20103;-74
2024/02/25 08:43:58;;;;;;;2.80;2.07;;;5.50;99.90;;;;;;7585697;19;20034;-73
2024/02/25 08:46:30;;;;;;;5.50;2.15;;;5.60;99.90;;;;;;7610570;19;20424;-76
2024/02/25 08:49:04;;;;;;;3.60;1.85;;;5.60;99.90;;;;;;7607305;19;20817;-72
2024/02/25 08:51:37;;;;;;;2.67;2.13;;;5.60;99.90;;;;;;7593955;19;20026;-76
2024/02/25 08:54:09;;;;;;;2.42;1.95;;;5.70;99.90;;;;;;7607721;19;20392;-74
2024/02/25 08:56:42;;;;;;;2.30;1.77;;;5.70;99.90;;;;;;7604573;19;20916;-75
2024/02/25 08:59:14;;;;;;;2.72;2.08;;;5.80;99.90;;;;;;7620324;19;20025;-75
2024/02/25 09:01:47;;;;;;;2.53;1.80;;;5.90;99.90;;;;;;7596882;19;20018;-73
2024/02/25 09:04:19;;;;;;;2.58;1.70;;;6.00;99.90;;;;;;7583857;19;20018;-75
2024/02/25 09:06:54;;;;;;;2.47;2.00;;;6.00;99.90;;;;;;7579707;19;20190;-78
2024/02/25 09:09:27;;;;;;;2.50;1.80;;;6.00;99.90;;;;;;7571114;19;20056;-78
2024/02/25 09:11:59;;;;;;;3.60;1.77;;;6.10;99.90;;;;;;7576797;19;20019;-77
2024/02/25 09:14:32;;;;;;;8.43;2.07;;;6.30;99.90;;;;;;7578100;19;20010;-78
2024/02/25 09:17:05;;;;;;;1.77;1.40;;;6.50;99.90;;;;;;7574504;19;20372;-79
2024/02/25 09:19:38;;;;;;;2.28;1.63;;;6.60;99.90;;;;;;7576302;19;20030;-78
2024/02/25 09:22:11;;;;;;;2.83;1.23;;;6.60;99.90;;;;;;7585774;19;20010;-79
2024/02/25 09:24:44;;;;;;;1.83;1.38;;;6.70;99.90;;;;;;7585161;19;20015;-79
2024/02/25 09:27:16;;;;;;;2.90;1.90;;;6.80;99.90;;;;;;7564062;19;20898;-76
2024/02/25 09:29:49;;;;;;;2.53;1.43;;;7.00;99.90;;;;;;7573988;19;20115;-75
2024/02/25 09:32:23;;;;;;;1.65;1.35;;;7.10;99.90;;;;;;7573472;19;20292;-74
2024/02/25 09:34:56;;;;;;;3.30;1.15;;;7.20;99.90;;;;;;7570283;19;20664;-74
2024/02/25 09:37:29;;;;;;;1.73;1.20;;;7.20;99.90;;;;;;7567161;19;20019;-75
2024/02/25 09:40:01;;;;;;;1.55;1.20;;;7.30;99.90;;;;;;7565833;19;20014;-75
2024/02/25 09:42:35;;;;;;;2.15;1.33;;;7.40;99.90;;;;;;7564177;19;20381;-74
2024/02/25 09:45:18;;;;;;;1.33;1.08;;;7.40;99.90;;;;;;7575133;19;20915;-73
2024/02/25 09:47:51;;;;;;;1.17;0.80;;;7.50;99.90;;;;;;7586435;19;20623;-74
2024/02/25 09:50:29;;;;;;;5.18;1.25;;;7.50;99.90;;;;;;7585911;19;20030;-74
2024/02/25 09:53:02;;;;;;;3.53;0.98;;;7.70;99.90;;;;;;7561848;19;20057;-74
2024/02/25 09:55:34;;;;;;;2.67;1.08;;;7.70;99.90;;;;;;7573664;19;20050;-75
2024/02/25 09:58:07;;;;;;;2.25;0.70;;;7.90;99.90;;;;;;7571242;19;20015;-74
2024/02/25 10:00:40;;;;;;;1.02;0.70;;;8.00;99.90;;;;;;7566964;19;20022;-74
2024/02/25 10:03:15;;;;;;;3.22;0.82;;;8.10;99.90;;;;;;7565291;19;20015;-73
2024/02/25 10:05:47;;;;;;;2.38;0.70;;;8.20;99.90;;;;;;7576745;19;20111;-73
2024/02/25 10:08:20;;;;;;;2.17;1.13;;;8.30;99.90;;;;;;7569024;19;20018;-73
2024/02/25 10:10:53;;;;;;;1.27;0.80;;;8.30;99.90;;;;;;7570771;19;20070;-73
2024/02/25 10:13:26;;;;;;;2.15;0.77;;;8.30;99.90;;;;;;7564246;19;20018;-73
2024/02/25 10:16:01;;;;;;;0.95;0.73;;;8.30;99.90;;;;;;7561238;19;20829;-73
2024/02/25 10:18:35;;;;;;;1.50;0.70;;;8.30;99.90;;;;;;7573302;19;20011;-73
2024/02/25 10:21:08;;;;;;;0.98;0.88;;;8.40;99.90;;;;;;7563576;19;20014;-75
2024/02/25 10:23:41;;;;;;;1.50;1.10;;;8.60;99.90;;;;;;7571113;19;21033;-73
2024/02/25 10:26:16;;;;;;;2.03;1.08;;;8.70;99.90;;;;;;7588905;19;20017;-76
2024/02/25 10:29:01;;;;;;;0.88;0.73;;;8.70;99.90;;;;;;7555810;19;20852;-74
2024/02/25 10:31:36;;;;;;;3.42;1.10;;;8.80;99.90;;;;;;7567708;19;20015;-75
2024/02/25 10:34:09;;;;;;;2.35;0.90;;;8.80;99.90;;;;;;7574694;19;20010;-74
2024/02/25 10:36:43;;;;;;;3.13;1.00;;;8.80;99.90;;;;;;7585437;19;20011;-74
2024/02/25 10:39:18;;;;;;;1.38;0.80;;;8.70;99.90;;;;;;7566613;19;20619;-73
2024/02/25 10:41:53;;;;;;;1.52;0.70;;;8.80;99.90;;;;;;7590576;19;20070;-72
2024/02/25 10:44:27;;;;;;;2.05;0.82;;;8.90;99.90;;;;;;7584231;19;20133;-72
2024/02/25 10:47:07;;;;;;;1.42;1.20;;;8.90;99.90;;;;;;7579804;19;20011;-74
2024/02/25 10:49:45;;;;;;;2.25;0.90;;;9.00;99.90;;;;;;7587909;19;20010;-74
2024/02/25 10:52:26;;;;;;;3.33;0.80;;;9.10;99.70;;;;;;7587697;19;20007;-72
2024/02/25 10:54:59;;;;;;;2.95;1.10;;;9.20;99.30;;;;;;7590244;19;20015;-72
2024/02/25 10:57:34;;;;;;;1.17;0.80;;;9.30;98.80;;;;;;7603591;19;20047;-71
2024/02/25 11:00:08;;;;;;;4.63;1.02;;;9.30;98.30;;;;;;7603640;19;20144;-74
2024/02/25 11:02:41;;;;;;;1.92;0.80;;;9.30;98.00;;;;;;7584990;19;20752;-75
2024/02/25 11:05:17;;;;;;;1.70;1.00;;;9.30;98.30;;;;;;7574610;19;20014;-75
2024/02/25 11:07:49;;;;;;;1.88;0.88;;;9.40;98.00;;;;;;7593042;19;20516;-75
2024/02/25 11:10:22;;;;;;;0.80;0.60;;;9.40;97.50;;;;;;7573080;19;20624;-74
2024/02/25 11:12:55;;;;;;;1.53;1.20;;;9.40;97.80;;;;;;7579639;19;20022;-74
2024/02/25 11:15:28;;;;;;;2.08;1.20;;;9.50;97.20;;;;;;7589166;19;20018;-74
2024/02/25 11:18:05;;;;;;;3.80;1.48;;;9.60;97.50;;;;;;7584037;19;20030;-75
2024/02/25 11:20:39;;;;;;;1.77;1.10;;;9.60;97.90;;;;;;7585974;19;20018;-75
2024/02/25 11:23:17;;;;;;;3.30;1.00;;;9.70;97.60;;;;;;7600752;19;20548;-76
2024/02/25 11:25:50;;;;;;;2.35;1.00;;;9.90;96.40;;;;;;7578527;19;20018;-73
2024/02/25 11:28:22;;;;;;;9.27;1.33;;;9.90;96.30;;;;;;7604427;19;20018;-74
2024/02/25 11:30:55;;;;;;;3.15;1.10;;;9.90;97.10;;;;;;7594869;19;20026;-73
2024/02/25 11:33:33;;;;;;;1.63;1.30;;;10.50;95.90;;;;;;7599576;19;20014;-73
2024/02/25 11:36:16;;;;;;;1.50;1.05;;;10.70;94.50;;;;;;7594749;19;20946;-73
2024/02/25 11:38:49;;;;;;;1.55;0.98;;;11.00;95.20;;;;;;7575222;19;20053;-74
2024/02/25 11:41:27;;;;;;;1.77;1.15;;;11.30;93.60;;;;;;7554872;19;20064;-73
2024/02/25 11:44:03;;;;;;;1.50;1.20;;;12.80;91.50;;;;;;7563597;19;20015;-73
2024/02/25 11:46:36;;;;;;;2.10;1.23;;;13.90;87.00;;;;;;7559993;19;20913;-74
2024/02/25 11:49:12;;;;;;;1.63;1.15;;;14.40;84.10;;;;;;7568151;19;20818;-73
2024/02/25 11:51:45;;;;;;;3.80;1.08;;;16.30;80.90;;;;;;7580206;19;20597;-74
2024/02/25 11:54:19;;;;;;;1.58;1.00;;;18.20;74.40;;;;;;7589476;19;20014;-74
2024/02/25 11:56:52;;;;;;;4.95;1.63;;;19.50;62.20;;;;;;7584880;19;20029;-74
2024/02/25 11:59:25;;;;;;;2.53;1.30;;;20.20;59.60;;;;;;7593394;19;20026;-73
2024/02/25 12:01:58;;;;;;;3.22;1.30;;;20.40;57.20;;;;;;7575387;19;20025;-75
2024/02/25 12:04:31;;;;;;;1.17;1.08;;;20.90;57.30;;;;;;7576401;19;20029;-73
2024/02/25 12:07:07;;;;;;;2.75;1.38;;;21.10;55.20;;;;;;7544462;19;20006;-75
2024/02/25 12:09:44;;;;;;;3.03;1.58;;;21.30;54.70;;;;;;7468683;19;20027;-73
2024/02/25 12:12:18;;;;;;;3.67;1.98;;;21.40;54.10;;;;;;7440368;19;20093;-71
2024/02/25 12:14:51;;;;;;;15.80;5.50;;;21.90;52.60;;;;;;7492156;19;20614;-71
2024/02/25 12:17:24;;;;;;;5.63;4.47;;;21.90;52.00;;;;;;7489400;19;20018;-71
2024/02/25 12:19:56;;;;;;;2.50;1.67;;;20.60;53.40;;;;;;7499663;19;20194;-73
2024/02/25 12:22:39;;;;;;;2.30;1.65;;;18.00;57.20;;;;;;7439706;19;28085;-69
2024/02/25 12:25:17;;;;;;;1.67;1.30;;;15.80;62.60;;;;;;7454580;19;25954;-70
2024/02/25 12:28:06;;;;;;;3.25;1.83;;;14.60;65.90;;;;;;7463674;19;24773;-69
2024/02/25 12:30:53;;;;;;;4.45;1.55;;;14.10;67.20;;;;;;7457759;19;25730;-69
2024/02/25 12:33:26;;;;;;;2.67;1.25;;;13.30;69.60;;;;;;7452144;19;27200;-69
2024/02/25 12:36:04;;;;;;;2.30;1.40;;;13.30;69.60;;;;;;7460842;19;20022;-69
2024/02/25 12:38:49;;;;;;;2.83;1.60;;;12.90;70.80;;;;;;7455171;19;26173;-69
2024/02/25 12:41:31;;;;;;;3.35;1.48;;;12.50;72.20;;;;;;7480235;19;20119;-69
2024/02/25 12:44:11;;;;;;;2.08;1.40;;;12.40;72.10;;;;;;7453880;19;27125;-67
2024/02/25 12:46:44;;;;;;;;;;;12.10;73.10;;;;;;7454705;19;27206;-69
2024/02/25 12:49:16;;;;;;;2.67;1.48;;;12.00;74.30;;;;;;7448956;19;27716;-68
2024/02/25 12:51:56;;;;;;;2.40;1.52;;;12.00;74.50;;;;;;7474226;19;27007;-67
2024/02/25 12:54:28;;;;;;;3.15;1.60;;;12.30;74.30;;;;;;7572979;19;20049;-67
2024/02/25 12:57:00;;;;;;;2.95;1.70;;;12.50;74.10;;;;;;7572998;19;22181;-71
2024/02/25 12:59:33;;;;;;;2.38;1.75;;;12.40;74.10;;;;;;7597203;19;20473;-69
2024/02/25 13:02:08;;;;;;;1.77;1.38;;;12.00;74.60;;;;;;7564075;19;20019;-69
2024/02/25 13:04:42;;;;;;;2.35;1.70;;;11.90;76.30;;;;;;7580153;19;20022;-70
2024/02/25 13:07:15;;;;;;;5.28;2.03;;;12.60;73.90;;;;;;7579875;19;20010;-67
2024/02/25 13:09:47;;;;;;;3.00;1.77;;;13.90;70.60;;;;;;7555489;19;20022;-70
2024/02/25 13:12:20;;;;;;;5.65;1.98;;;14.90;68.00;;;;;;7565706;19;20018;-69
2024/02/25 13:14:53;;;;;;;3.03;1.65;;;15.90;65.40;;;;;;7565750;19;20021;-70
2024/02/25 13:17:26;;;;;;;2.05;1.50;;;16.00;64.30;;;;;;7602946;19;20035;-67
2024/02/25 13:19:59;;;;;;;1.95;1.55;;;14.70;66.10;;;;;;7609370;19;20122;-69
2024/02/25 13:22:32;;;;;;;3.38;1.60;;;14.00;68.70;;;;;;7603168;19;20022;-69
2024/02/25 13:25:05;;;;;;;3.13;1.70;;;13.70;69.90;;;;;;7602321;19;20018;-69
2024/02/25 13:27:37;;;;;;;2.08;1.45;;;14.30;67.60;;;;;;7604859;19;20686;-69
2024/02/25 13:30:11;;;;;;;2.83;1.40;;;14.80;65.50;;;;;;7605730;19;20030;-69